VABB/BOM METAR and TAF weather

Enter ICAO airport designator
Station Type Date Time Source
VABB METAR 2019/06/18 14:30 UTC NOAA

VABB 181430Z 21004KT 2500 HZ SCT018 SCT025 BKN090 28/25 Q1004 NOSIG


Station Type Date Time Source
VABB Decoded METAR 2019/06/18 14:30 UTC NOAA

Bombay / Santacruz, India (VABB) 19-07N 072-51E 14M
Jun 18, 2019 - 10:30 AM EDT / 2019.06.18 1430 UTC
Wind: from the SSW (210 degrees) at 5 MPH (4 KT):0
Visibility: 1 mile(s):0
Sky conditions: mostly cloudy
Weather: haze
Temperature: 82 F (28 C)
Dew Point: 77 F (25 C)
Relative Humidity: 83%
Pressure (altimeter): 29.65 in. Hg (1004 hPa)
ob: VABB 181430Z 21004KT 2500 HZ SCT018 SCT025 BKN090 28/25 Q1004 NOSIG
cycle: 14

Station Type Date Time Source
VABB TAF 2019/06/18 12:09 UTC NOAA

TAF TAF VABB 181100Z 1812/1918 24010KT 3000 -RA HZ FEW012 SCT018 BKN090
TEMPO 1812/1824 2000 -SHRA SCT012 FEW025TCU BKN080
BECMG 1903/1905 22008G18KT
BECMG 1906/1908 4000 HZ SCT018 SCT025 BKN100
BECMG 1913/1915 24008KT 3000 -RA HZ FEW012 SCT018 BKN090
TEMPO 1906/1918 2000 -SHRA SCT012 FEW025TCU BKN080

Example: see airport list